x

North Nomad (46184) Wave Buoy

3:00am - Wed 23rd Aug 2017 All times are AKDT. -8 hours from GMT.

  • Sig Wave height 9.8ft
  • Peak Period 10s
  • Wind
    25mph, 31mph gusts
  • Sea Temp 57°f
  • Air Temp 55°f
  • Sea Pressure 1002.6mb
  • North Nomad
  • North Nomad

More Historic Weather Station data

Upgrade to MSW Pro to gain access to the past 30 days of data for over 8000 Wavebouys and Weather Stations around the globe.

Join

Comparision Forecast

View Surf forecast
   
Wed 08/23 3:00am 10ft 10s 25 31 mph 1002.6mb 57f 55f
2:00am 9.5ft 11s 25 31 mph 1002.8mb 57f 55f
1:00am 10ft 11s 25 29 mph 1002.8mb 57f 55f
12:00am 10ft 10s 20 25 mph 1003.1mb 58f 56f
Tue 08/22 11:00pm 11ft 10s 20 25 mph 1002.9mb 58f 56f
10:00pm 11ft 11s 20 25 mph 1002.8mb 58f 56f
9:00pm 11.5ft 12s 22 27 mph 1002.6mb 58f 56f
8:00pm 13.5ft 10s 25 29 mph 1002.2mb 58f 56f
7:00pm 13.5ft 11s 29 34 mph 1001.9mb 58f 56f
6:00pm 12ft 9s 25 31 mph 1002mb 58f 55f
5:00pm 11ft 9s 31 38 mph 1001.7mb 58f 56f
4:00pm 10ft 8s 27 31 mph 1001.7mb 58f 56f
3:00pm 9ft 8s 29 36 mph 1002.1mb 58f 55f
2:00pm 8.5ft 7s 27 36 mph 1003.2mb 58f 54f
1:00pm 8ft 8s 25 29 mph 1003.9mb 58f 55f
12:00pm 8ft 7s 27 34 mph 1004.4mb 58f 56f
11:00am 8ft 8s 27 31 mph 1004.9mb 58f 56f
10:00am 7ft 8s 25 29 mph 1005.2mb 58f 56f
9:00am 7ft 8s 20 27 mph 1005.5mb 58f 56f
8:00am 7ft 8s 22 27 mph 1005.7mb 58f 56f
7:00am 7ft 7s 22 27 mph 1005.9mb 58f 56f
6:00am 6.5ft 8s 22 27 mph 1005.9mb 58f 55f
5:00am 7ft 8s 20 22 mph 1005.9mb 58f 55f
4:00am 7ft 8s 18 25 mph 1006mb 58f 55f
3:00am 6.5ft 8s 22 25 mph 1005.8mb 58f 55f
2:00am 6.5ft 8s 20 25 mph 1005.7mb 58f 55f
1:00am 7ft 8s 22 25 mph 1005.5mb 58f 56f
12:00am 6.5ft 8s 20 22 mph 1005.4mb 58f 56f
Mon 08/21 11:00pm 7ft 8s 18 22 mph 1005.3mb 58f 56f
10:00pm 6.5ft 8s 13 18 mph 1005.5mb 58f 56f
9:00pm 7ft 8s 20 27 mph 1005.4mb 58f 56f
8:00pm 7ft 8s 22 27 mph 1005.5mb 58f 56f
7:00pm 7ft 9s 22 25 mph 1005.8mb 58f 57f
6:00pm 7ft 8s 20 25 mph 1006.3mb 58f 57f
5:00pm 8ft 9s 20 25 mph 1006.7mb 58f 57f
4:00pm 6.5ft 8s 18 22 mph 1006.9mb 58f 57f
3:00pm 7ft 8s 20 22 mph 1007mb 58f 57f
2:00pm 7ft 8s 18 22 mph 1007.1mb 58f 57f
1:00pm 6.5ft 8s 18 22 mph 1007.2mb 58f 57f
12:00pm 7ft 9s 18 20 mph 1007mb 58f 57f
11:00am 6.5ft 8s 18 22 mph 1006.8mb 58f 56f
10:00am 7ft 8s 16 20 mph 1006.6mb 58f 56f
9:00am 6ft 8s 18 20 mph 1006.5mb 58f 57f
8:00am 6ft 8s 16 18 mph 1006.4mb 58f 57f
7:00am 6ft 8s 16 18 mph 1006.2mb 58f 56f
6:00am 6ft 8s 13 16 mph 1006.3mb 58f 56f
5:00am 6.5ft 8s 11 13 mph 1006.5mb 58f 57f
4:00am 6ft 7s 9 11 mph 1006.8mb 58f 56f
3:00am 6ft 8s 13 16 mph 1006.9mb 58f 57f
2:00am 6.5ft 7s 16 20 mph 1007mb 58f 57f
1:00am 6ft 7s 18 22 mph 1007.4mb 58f 57f
12:00am 6.5ft 14s 16 20 mph 1007.5mb 58f 57f
Sun 08/20 11:00pm 6.5ft 6s 18 22 mph 1007.4mb 58f 57f
10:00pm 6.5ft 8s 18 22 mph 1007.6mb 58f 57f
9:00pm 6.5ft 7s 20 25 mph 1008.2mb 58f 57f
8:00pm 7ft 7s 22 25 mph 1007.7mb 58f 57f
7:00pm 7ft 16s 22 27 mph 1007.5mb 58f 57f
6:00pm 7ft 7s 22 27 mph 1007.1mb 58f 57f
5:00pm 7ft 6s 22 27 mph 1006.9mb 57f 58f
4:00pm 6.5ft 7s 25 29 mph 1006.6mb 57f 57f
3:00pm 6.5ft 7s 22 27 mph 1006.6mb 58f 57f
2:00pm 6.5ft 7s 22 27 mph 1006.8mb 58f 57f
1:00pm 6.5ft 6s 20 22 mph 1007.4mb 58f 57f
12:00pm 7ft 6s 18 25 mph 1008.1mb 58f 57f
11:00am 7ft 7s 18 22 mph 1008.4mb 58f 57f
10:00am 6ft 8s 18 20 mph 1008.4mb 58f 56f
9:00am 5.5ft 9s 20 22 mph 1009.5mb 58f 56f
8:00am 5ft 9s 18 20 mph 1009.5mb 58f 56f
7:00am 4.5ft 10s 20 22 mph 1009.5mb 57f 56f
6:00am 4.5ft 9s 16 18 mph 1009.4mb 57f 56f
5:00am 5ft 10s 13 16 mph 1009.6mb 57f 56f
4:00am 4.5ft 10s 13 16 mph 1009.9mb 57f 56f
3:00am 5ft 10s 13 16 mph 1010.1mb 57f 56f
2:00am 5ft 9s 9 11 mph 1010.3mb 57f 56f
1:00am 5.5ft 10s 7 9 mph 1010.4mb 57f 56f
12:00am 6ft 9s 11 13 mph 1010.8mb 57f 56f
Sat 08/19 11:00pm 6ft 10s 13 16 mph 1010.9mb 57f 56f
10:00pm 6ft 10s 13 16 mph 1011.5mb 57f 56f
9:00pm 6.5ft 10s 13 18 mph 1011.8mb 57f 56f
8:00pm 6ft 10s 13 18 mph 1012.3mb 57f 56f
7:00pm 6ft 9s 13 18 mph 1012.8mb 57f 56f
6:00pm 6ft 10s 11 13 mph 1013.4mb 57f 55f
5:00pm 5.5ft 9s 9 11 mph 1014.3mb 58f 55f
4:00pm 6ft 10s 7 9 mph 1014.5mb 57f 56f
3:00pm 6ft 10s 9 11 mph 1015.3mb 57f 56f
2:00pm 6ft 8s 7 9 mph 1015.6mb 57f 56f
1:00pm 7ft 10s 11 13 mph 1015.9mb 57f 56f